createdAt,value
2022-10-19T00:01:05.270Z,18.65
2022-10-19T00:03:32.924Z,18.92
2022-10-19T00:06:00.006Z,22.17
2022-10-19T00:08:27.457Z,22.73
2022-10-19T00:10:54.232Z,19.48
2022-10-19T00:13:20.988Z,23.27
2022-10-19T00:15:47.813Z,22.65
2022-10-19T00:18:14.645Z,19.25
2022-10-19T00:20:42.043Z,22.85
2022-10-19T00:23:08.828Z,19.45
2022-10-19T00:25:37.084Z,18.05
2022-10-19T00:28:04.405Z,18.27
2022-10-19T00:30:31.512Z,16.88
2022-10-19T00:32:58.320Z,22.67
2022-10-19T00:35:25.103Z,25.85
2022-10-19T00:37:51.848Z,21.08
2022-10-19T00:40:18.729Z,21.38
2022-10-19T00:42:45.538Z,57.90
2022-10-19T00:45:17.355Z,57.20
2022-10-19T00:47:45.198Z,20.45
2022-10-19T00:50:15.131Z,21.88
2022-10-19T00:52:42.337Z,39.03
2022-10-19T00:55:09.681Z,67.10
2022-10-19T00:57:36.913Z,25.13
2022-10-19T01:00:07.005Z,45.75
2022-10-19T01:02:34.290Z,23.77
2022-10-19T01:05:02.053Z,24.60
2022-10-19T01:07:28.862Z,35.95
2022-10-19T01:09:56.408Z,34.17
2022-10-19T01:13:07.132Z,26.38
2022-10-19T01:15:58.720Z,42.35
2022-10-19T01:18:33.545Z,36.20
2022-10-19T01:21:32.405Z,25.75
2022-10-19T01:24:23.564Z,25.25
2022-10-19T01:26:53.178Z,28.83
2022-10-19T01:29:51.221Z,27.45
2022-10-19T01:32:57.567Z,27.92
2022-10-19T01:35:45.419Z,31.90
2022-10-19T01:38:36.397Z,34.35
2022-10-19T01:41:21.656Z,28.05
2022-10-19T01:44:15.509Z,28.25
2022-10-19T01:46:48.023Z,27.27
2022-10-19T01:49:24.889Z,27.23
2022-10-19T01:51:56.249Z,29.33
2022-10-19T01:54:26.688Z,28.90
2022-10-19T01:56:55.052Z,30.52
2022-10-19T01:59:22.471Z,27.60
2022-10-19T02:01:51.204Z,29.35
2022-10-19T02:04:21.224Z,35.80
2022-10-19T02:06:48.348Z,35.45
2022-10-19T02:09:17.978Z,33.03
2022-10-19T02:11:57.323Z,29.83
2022-10-19T02:14:29.235Z,27.45
2022-10-19T02:17:05.238Z,26.27
2022-10-19T02:23:22.098Z,24.92
2022-10-19T02:25:48.908Z,25.05
2022-10-19T02:28:15.721Z,28.42
2022-10-19T02:30:42.808Z,23.58
2022-10-19T02:33:09.626Z,24.20
2022-10-19T02:35:36.364Z,24.45
2022-10-19T02:38:05.160Z,23.48
2022-10-19T02:40:36.631Z,22.50
2022-10-19T02:43:09.928Z,24.65
2022-10-19T02:45:43.888Z,22.52
2022-10-19T02:48:22.804Z,23.50
2022-10-19T02:50:49.810Z,19.52
2022-10-19T02:53:16.799Z,22.52
2022-10-19T02:55:44.257Z,21.55
2022-10-19T02:58:10.875Z,24.00
2022-10-19T03:00:37.572Z,22.48
2022-10-19T03:03:04.300Z,24.42
2022-10-19T03:05:30.932Z,19.73
2022-10-19T03:07:57.747Z,23.27
2022-10-19T03:10:24.604Z,21.95
2022-10-19T03:12:51.237Z,20.45
2022-10-19T03:15:19.588Z,20.95
2022-10-19T03:17:46.328Z,19.80
2022-10-19T03:20:13.045Z,22.33
2022-10-19T03:22:39.726Z,23.15
2022-10-19T03:25:06.927Z,22.35
2022-10-19T03:27:33.922Z,24.27
2022-10-19T03:30:00.698Z,23.02
2022-10-19T03:32:27.489Z,23.58
2022-10-19T03:34:54.193Z,21.02
2022-10-19T03:37:20.801Z,24.08
2022-10-19T03:39:47.538Z,21.77
2022-10-19T03:42:14.239Z,22.83
2022-10-19T03:44:40.954Z,27.20
2022-10-19T03:47:07.764Z,24.25
2022-10-19T03:49:36.758Z,28.27
2022-10-19T03:52:06.306Z,27.50
2022-10-19T03:54:32.963Z,26.63
2022-10-19T03:56:59.714Z,24.65
2022-10-19T03:59:26.573Z,23.35
2022-10-19T04:01:53.286Z,26.40
2022-10-19T04:04:20.224Z,25.73
2022-10-19T04:06:49.012Z,22.58
2022-10-19T04:09:21.927Z,22.80
2022-10-19T04:11:49.104Z,24.58
2022-10-19T04:14:26.841Z,26.15
2022-10-19T04:17:03.918Z,22.00
2022-10-19T04:19:30.998Z,25.20
2022-10-19T04:21:58.033Z,22.63
2022-10-19T04:24:24.886Z,21.85
2022-10-19T04:26:54.350Z,20.35
2022-10-19T04:29:25.079Z,23.75
2022-10-19T04:31:54.725Z,19.85
2022-10-19T04:34:21.311Z,21.55
2022-10-19T04:36:47.979Z,21.05
2022-10-19T04:39:15.052Z,21.08
2022-10-19T04:41:41.757Z,22.88
2022-10-19T04:44:09.650Z,22.15
2022-10-19T04:46:37.341Z,18.70
2022-10-19T04:49:06.070Z,18.48
2022-10-19T04:51:32.792Z,18.05
2022-10-19T04:54:00.067Z,17.58
2022-10-19T04:56:27.728Z,20.23
2022-10-19T04:58:56.697Z,21.13
2022-10-19T05:01:25.275Z,22.83
2022-10-19T05:06:24.910Z,21.17
2022-10-19T05:08:51.610Z,23.10
2022-10-19T05:11:19.763Z,23.85
2022-10-19T05:13:47.186Z,22.30
2022-10-19T05:16:16.530Z,18.63
2022-10-19T05:18:46.520Z,20.70
2022-10-19T05:21:14.943Z,24.88
2022-10-19T05:23:42.463Z,22.85
2022-10-19T05:26:18.658Z,23.38
2022-10-19T05:28:57.275Z,21.15
2022-10-19T05:31:27.147Z,21.27
2022-10-19T05:33:54.215Z,22.17
2022-10-19T05:36:26.450Z,19.98
2022-10-19T05:38:55.988Z,24.92
2022-10-19T05:41:23.726Z,21.52
2022-10-19T05:43:56.218Z,19.55
2022-10-19T05:46:23.964Z,21.92
2022-10-19T05:48:50.668Z,21.42
2022-10-19T05:51:19.746Z,20.90
2022-10-19T05:53:46.853Z,21.25
2022-10-19T05:56:18.994Z,21.77
2022-10-19T05:58:46.121Z,20.65
2022-10-19T06:01:14.156Z,18.35
2022-10-19T06:03:41.463Z,19.02
2022-10-19T06:06:09.153Z,21.10
2022-10-19T06:08:36.615Z,23.33
2022-10-19T06:11:12.692Z,20.02
2022-10-19T06:13:40.741Z,22.42
2022-10-19T06:16:09.302Z,22.98
2022-10-19T06:18:36.607Z,21.33
2022-10-19T06:21:06.411Z,19.27
2022-10-19T06:23:34.641Z,24.77
2022-10-19T06:26:06.640Z,21.02
2022-10-19T06:28:34.262Z,17.90
2022-10-19T06:31:01.244Z,20.08
2022-10-19T06:33:30.248Z,18.67
2022-10-19T06:36:04.528Z,19.92
2022-10-19T06:38:31.291Z,19.05
2022-10-19T06:41:01.182Z,18.45
2022-10-19T06:43:27.884Z,18.10
2022-10-19T06:45:54.874Z,17.23
2022-10-19T06:48:21.719Z,15.32
2022-10-19T06:50:59.565Z,15.85
2022-10-19T06:53:27.227Z,16.83
2022-10-19T06:55:54.043Z,17.27
2022-10-19T06:58:20.766Z,18.52
2022-10-19T07:00:55.154Z,16.00
2022-10-19T07:03:21.894Z,19.95
2022-10-19T07:05:56.481Z,17.48
2022-10-19T07:08:23.850Z,17.50
2022-10-19T07:10:52.251Z,18.48
2022-10-19T07:13:19.965Z,14.85
2022-10-19T07:15:49.787Z,17.90
2022-10-19T07:18:17.107Z,19.10
2022-10-19T07:20:53.400Z,15.68
2022-10-19T07:23:20.194Z,20.20
2022-10-19T07:25:47.116Z,16.40
2022-10-19T07:28:15.961Z,17.75
2022-10-19T07:30:42.828Z,16.38
2022-10-19T07:33:09.599Z,13.32
2022-10-19T07:35:37.054Z,17.45
2022-10-19T07:38:04.281Z,17.88
2022-10-19T07:40:31.194Z,19.92
2022-10-19T07:42:58.066Z,21.20
2022-10-19T07:45:25.007Z,22.70
2022-10-19T07:47:51.936Z,21.55
2022-10-19T07:50:19.021Z,18.55
2022-10-19T07:52:45.787Z,19.02
2022-10-19T07:55:12.469Z,18.52
2022-10-19T07:57:40.754Z,16.55
2022-10-19T08:00:10.317Z,17.90
2022-10-19T08:02:54.668Z,16.98
2022-10-19T08:05:24.333Z,20.30
2022-10-19T08:07:51.161Z,17.50
2022-10-19T08:10:18.025Z,17.63
2022-10-19T08:12:44.795Z,20.38
2022-10-19T08:15:11.719Z,19.25
2022-10-19T08:17:39.830Z,20.17
2022-10-19T08:20:07.569Z,23.48
2022-10-19T08:22:36.990Z,20.83
2022-10-19T08:25:04.118Z,22.50
2022-10-19T08:27:30.936Z,24.20
2022-10-19T08:29:57.826Z,28.90
2022-10-19T08:32:24.574Z,27.35
2022-10-19T08:34:51.299Z,24.45
2022-10-19T08:37:26.446Z,20.77
2022-10-19T08:40:05.450Z,24.90
2022-10-19T08:43:00.765Z,19.85
2022-10-19T08:45:38.044Z,20.55
2022-10-19T08:48:28.725Z,19.73
2022-10-19T08:50:57.201Z,23.25
2022-10-19T08:53:45.755Z,26.40
2022-10-19T08:56:22.202Z,22.98
2022-10-19T08:59:20.553Z,20.98
2022-10-19T09:02:03.628Z,20.50
2022-10-19T09:04:45.469Z,22.00
2022-10-19T09:07:15.117Z,17.98
2022-10-19T09:09:59.812Z,17.85
2022-10-19T09:12:37.962Z,21.13
2022-10-19T09:15:10.327Z,20.38
2022-10-19T09:17:37.556Z,18.35
2022-10-19T09:20:41.805Z,18.75
2022-10-19T09:23:22.056Z,17.05
2022-10-19T09:25:51.598Z,15.65
2022-10-19T09:28:40.158Z,15.70
2022-10-19T09:31:13.595Z,13.60
2022-10-19T09:33:41.936Z,14.68
2022-10-19T09:36:18.192Z,18.38
2022-10-19T09:38:51.180Z,15.45
2022-10-19T09:41:23.691Z,15.43
2022-10-19T09:43:55.121Z,12.82
2022-10-19T09:49:10.657Z,13.35
2022-10-19T09:51:52.581Z,15.35
2022-10-19T09:54:36.447Z,12.88
2022-10-19T09:57:05.275Z,13.30
2022-10-19T09:59:36.936Z,11.93
2022-10-19T10:02:33.678Z,14.70
2022-10-19T10:05:07.204Z,12.18
2022-10-19T10:07:37.604Z,15.98
2022-10-19T10:10:20.320Z,17.08
2022-10-19T10:12:47.686Z,12.43
2022-10-19T10:15:22.099Z,12.95
2022-10-19T10:17:49.818Z,11.38
2022-10-19T10:20:27.764Z,11.23
2022-10-19T10:22:58.550Z,13.50
2022-10-19T10:25:32.296Z,12.13
2022-10-19T10:28:21.068Z,12.02
2022-10-19T10:30:53.445Z,12.25
2022-10-19T10:33:43.710Z,13.02
2022-10-19T10:36:12.540Z,12.13
2022-10-19T10:38:50.162Z,9.90
2022-10-19T10:41:23.124Z,11.93
2022-10-19T10:43:57.451Z,11.68
2022-10-19T10:46:32.574Z,10.25
2022-10-19T10:49:02.872Z,11.77
2022-10-19T10:51:56.128Z,11.07
2022-10-19T10:54:30.583Z,13.45
2022-10-19T10:57:15.756Z,11.20
2022-10-19T10:59:55.371Z,9.50
2022-10-19T11:02:31.685Z,8.80
2022-10-19T11:05:10.527Z,8.95
2022-10-19T11:07:42.999Z,10.45
2022-10-19T11:10:37.069Z,8.98
2022-10-19T11:13:13.311Z,9.45
2022-10-19T11:15:46.801Z,12.43
2022-10-19T11:18:20.657Z,10.18
2022-10-19T11:21:09.668Z,10.68
2022-10-19T11:23:40.393Z,11.35
2022-10-19T11:26:25.603Z,9.20
2022-10-19T11:29:13.625Z,9.32
2022-10-19T11:31:48.011Z,8.77
2022-10-19T11:34:42.889Z,8.73
2022-10-19T11:37:33.820Z,8.77
2022-10-19T11:40:28.772Z,8.27
2022-10-19T11:43:17.162Z,8.68
2022-10-19T11:46:01.716Z,7.10
2022-10-19T11:48:31.148Z,7.18
2022-10-19T11:51:16.798Z,8.15
2022-10-19T11:54:25.740Z,8.15
2022-10-19T11:57:03.945Z,6.72
2022-10-19T11:59:45.889Z,7.05
2022-10-19T12:02:20.221Z,7.95
2022-10-19T12:04:51.616Z,9.20
2022-10-19T12:07:39.583Z,8.93
2022-10-19T12:10:12.149Z,7.38
2022-10-19T12:12:47.657Z,7.88
2022-10-19T12:15:31.202Z,8.05
2022-10-19T12:18:06.858Z,7.43
2022-10-19T12:20:47.299Z,13.38
2022-10-19T12:23:35.880Z,7.32
2022-10-19T12:26:06.437Z,7.40
2022-10-19T12:28:40.532Z,6.78
2022-10-19T12:31:11.243Z,7.50
2022-10-19T12:33:56.952Z,9.00
2022-10-19T12:36:48.077Z,7.93
2022-10-19T12:39:33.476Z,11.52
2022-10-19T12:42:11.913Z,8.18
2022-10-19T12:44:44.482Z,7.35
2022-10-19T12:47:22.622Z,8.02
2022-10-19T12:49:56.403Z,8.60
2022-10-19T12:52:48.226Z,9.43
2022-10-19T12:55:17.910Z,6.88
2022-10-19T12:57:48.716Z,9.52
2022-10-19T13:00:22.315Z,9.13
2022-10-19T13:03:00.327Z,7.20
2022-10-19T13:05:30.660Z,7.47
2022-10-19T13:07:58.785Z,8.18
2022-10-19T13:10:28.135Z,8.48
2022-10-19T13:12:55.723Z,7.35
2022-10-19T13:15:34.696Z,7.70
2022-10-19T13:18:06.053Z,6.50
2022-10-19T13:20:33.862Z,7.25
2022-10-19T13:23:06.638Z,6.80
2022-10-19T13:25:35.230Z,6.47
2022-10-19T13:28:27.695Z,6.82
2022-10-19T13:31:04.853Z,6.15
2022-10-19T13:33:44.919Z,6.57
2022-10-19T13:36:12.702Z,5.57
2022-10-19T13:38:50.538Z,5.53
2022-10-19T13:41:28.561Z,5.90
2022-10-19T13:44:03.217Z,5.93
2022-10-19T13:46:29.866Z,5.15
2022-10-19T13:49:05.359Z,5.60
2022-10-19T13:51:32.176Z,7.03
2022-10-19T13:54:43.509Z,5.50
2022-10-19T13:57:50.143Z,4.72
2022-10-19T14:00:20.184Z,4.78
2022-10-19T14:03:20.547Z,4.85
2022-10-19T14:05:52.995Z,5.05
2022-10-19T14:08:41.678Z,4.95
2022-10-19T14:11:28.729Z,4.43
2022-10-19T14:14:15.523Z,5.78
2022-10-19T14:16:59.889Z,4.38
2022-10-19T14:19:32.300Z,4.28
2022-10-19T14:22:01.244Z,4.60
2022-10-19T14:24:34.308Z,4.10
2022-10-19T14:27:04.464Z,4.20
2022-10-19T14:29:37.085Z,7.07
2022-10-19T14:32:04.582Z,4.05
2022-10-19T14:34:31.578Z,3.83
2022-10-19T14:37:01.883Z,3.88
2022-10-19T14:39:34.471Z,5.00
2022-10-19T14:42:07.186Z,4.43
2022-10-19T14:44:46.301Z,3.50
2022-10-19T14:47:21.189Z,3.65
2022-10-19T14:49:48.987Z,3.55
2022-10-19T14:52:31.999Z,3.75
2022-10-19T14:55:00.909Z,3.72
2022-10-19T14:57:33.299Z,3.45
2022-10-19T15:00:04.192Z,3.72
2022-10-19T15:02:44.362Z,3.70
2022-10-19T15:05:22.201Z,4.40
2022-10-19T15:07:49.792Z,3.92
2022-10-19T15:10:47.572Z,4.03
2022-10-19T15:13:31.495Z,7.82
2022-10-19T15:16:02.188Z,3.90
2022-10-19T15:18:48.761Z,3.58
2022-10-19T15:21:20.323Z,3.78
2022-10-19T15:23:50.391Z,6.22
2022-10-19T15:26:19.406Z,3.85
2022-10-19T15:28:47.464Z,4.03
2022-10-19T15:31:26.817Z,4.10
2022-10-19T15:34:00.086Z,3.70
2022-10-19T15:36:29.496Z,6.78
2022-10-19T15:39:18.446Z,4.93
2022-10-19T15:41:53.425Z,4.28
2022-10-19T15:44:40.851Z,4.85
2022-10-19T15:47:18.015Z,4.03
2022-10-19T15:49:44.816Z,4.43
2022-10-19T15:52:15.603Z,5.00
2022-10-19T15:54:43.176Z,4.15
2022-10-19T15:57:29.513Z,4.53
2022-10-19T15:59:58.847Z,6.22
2022-10-19T16:02:25.971Z,6.43
2022-10-19T16:04:53.676Z,5.57
2022-10-19T16:07:26.963Z,5.97
2022-10-19T16:09:54.707Z,6.60
2022-10-19T16:12:22.533Z,5.05
2022-10-19T16:14:49.582Z,8.32
2022-10-19T16:17:16.911Z,5.93
2022-10-19T16:19:44.746Z,4.68
2022-10-19T16:22:12.649Z,8.50
2022-10-19T16:24:40.116Z,8.38
2022-10-19T16:27:07.832Z,15.68
2022-10-19T16:29:34.909Z,11.15
2022-10-19T16:32:01.687Z,11.35
2022-10-19T16:34:28.700Z,9.68
2022-10-19T16:36:55.562Z,6.85
2022-10-19T16:39:25.463Z,6.57
2022-10-19T16:41:52.269Z,8.07
2022-10-19T16:44:19.115Z,5.50
2022-10-19T16:46:46.063Z,6.45
2022-10-19T16:49:12.853Z,4.78
2022-10-19T16:51:40.902Z,4.55
2022-10-19T16:54:10.357Z,8.38
2022-10-19T16:56:42.200Z,6.38
2022-10-19T16:59:13.577Z,5.60
2022-10-19T17:01:41.648Z,3.88
2022-10-19T17:04:08.434Z,5.20
2022-10-19T17:06:35.442Z,4.72
2022-10-19T17:09:36.648Z,5.82
2022-10-19T17:11:49.514Z,6.18
2022-10-19T17:14:16.247Z,4.88
2022-10-19T17:16:42.986Z,4.78
2022-10-19T17:19:11.565Z,5.82
2022-10-19T17:21:38.831Z,5.30
2022-10-19T17:24:08.399Z,6.45
2022-10-19T17:26:38.535Z,5.30
2022-10-19T17:29:06.579Z,4.88
2022-10-19T17:31:34.268Z,5.10
2022-10-19T17:34:01.861Z,5.28
2022-10-19T17:36:31.408Z,5.50
2022-10-19T17:39:01.297Z,4.72
2022-10-19T17:41:28.872Z,4.22
2022-10-19T17:43:56.434Z,5.22
2022-10-19T17:46:30.188Z,5.45
2022-10-19T17:48:58.039Z,3.78
2022-10-19T17:51:28.820Z,4.53
2022-10-19T17:53:57.950Z,6.07
2022-10-19T17:56:25.299Z,4.18
2022-10-19T17:58:52.305Z,3.28
2022-10-19T18:01:21.479Z,3.13
2022-10-19T18:03:48.895Z,4.22
2022-10-19T18:06:24.593Z,4.13
2022-10-19T18:08:53.120Z,4.35
2022-10-19T18:11:28.681Z,4.10
2022-10-19T18:13:57.722Z,6.10
2022-10-19T18:16:27.654Z,5.03
2022-10-19T18:18:56.723Z,6.07
2022-10-19T18:21:26.328Z,11.55
2022-10-19T18:23:55.640Z,6.30
2022-10-19T18:26:24.768Z,4.85
2022-10-19T18:28:52.588Z,7.63
2022-10-19T18:31:22.517Z,4.82
2022-10-19T18:33:55.374Z,4.70
2022-10-19T18:36:22.526Z,5.07
2022-10-19T18:38:53.622Z,4.82
2022-10-19T18:41:20.873Z,4.30
2022-10-19T18:43:59.298Z,8.85
2022-10-19T18:46:26.261Z,5.30
2022-10-19T18:48:53.619Z,5.88
2022-10-19T18:51:22.456Z,7.18
2022-10-19T18:53:49.760Z,7.03
2022-10-19T18:56:19.541Z,5.57
2022-10-19T18:58:46.877Z,4.88
2022-10-19T19:01:16.621Z,8.63
2022-10-19T19:03:46.542Z,6.50
2022-10-19T19:06:25.545Z,6.80
2022-10-19T19:08:56.604Z,4.70
2022-10-19T19:11:25.883Z,4.43
2022-10-19T19:13:55.505Z,5.13
2022-10-19T19:16:22.750Z,6.22
2022-10-19T19:18:50.146Z,8.48
2022-10-19T19:21:21.906Z,7.93
2022-10-19T19:23:49.061Z,6.35
2022-10-19T19:26:17.320Z,11.70
2022-10-19T19:28:47.620Z,6.80
2022-10-19T19:31:18.698Z,6.57
2022-10-19T19:33:47.190Z,4.45
2022-10-19T19:36:16.043Z,4.97
2022-10-19T19:38:43.278Z,5.18
2022-10-19T19:41:13.880Z,4.07
2022-10-19T19:43:42.472Z,4.28
2022-10-19T19:46:16.688Z,4.25
2022-10-19T19:48:45.958Z,13.85
2022-10-19T19:51:16.061Z,8.77
2022-10-19T19:53:43.260Z,12.93
2022-10-19T19:56:11.676Z,6.70
2022-10-19T19:58:39.739Z,7.72
2022-10-19T20:01:18.248Z,5.70
2022-10-19T20:03:46.382Z,7.30
2022-10-19T20:06:15.129Z,6.38
2022-10-19T20:08:42.306Z,8.50
2022-10-19T20:11:11.781Z,6.55
2022-10-19T20:13:39.921Z,5.65
2022-10-19T20:16:12.645Z,7.13
2022-10-19T20:18:45.188Z,6.70
2022-10-19T20:21:12.677Z,5.80
2022-10-19T20:23:39.434Z,5.78
2022-10-19T20:26:06.508Z,5.55
2022-10-19T20:28:33.816Z,5.63
2022-10-19T20:31:06.937Z,5.70
2022-10-19T20:33:36.586Z,6.07
2022-10-19T20:36:16.530Z,5.45
2022-10-19T20:38:51.866Z,6.25
2022-10-19T20:41:20.575Z,5.75
2022-10-19T20:43:47.363Z,5.80
2022-10-19T20:46:20.972Z,6.10
2022-10-19T20:48:48.120Z,6.32
2022-10-19T20:51:20.532Z,5.63
2022-10-19T20:53:49.917Z,7.18
2022-10-19T20:56:19.216Z,5.22
2022-10-19T20:58:47.066Z,5.78
2022-10-19T21:01:18.836Z,6.32
2022-10-19T21:03:48.359Z,5.70
2022-10-19T21:06:15.166Z,6.82
2022-10-19T21:08:42.230Z,7.40
2022-10-19T21:11:13.363Z,5.95
2022-10-19T21:13:40.448Z,6.88
2022-10-19T21:16:16.028Z,6.68
2022-10-19T21:18:43.999Z,6.65
2022-10-19T21:21:22.575Z,6.25
2022-10-19T21:23:55.769Z,6.40
2022-10-19T21:26:25.223Z,7.30
2022-10-19T21:28:54.807Z,5.93
2022-10-19T21:31:23.233Z,6.28
2022-10-19T21:33:50.843Z,6.45
2022-10-19T21:36:19.201Z,8.48
2022-10-19T21:38:45.963Z,9.85
2022-10-19T21:41:15.142Z,6.47
2022-10-19T21:43:42.549Z,6.90
2022-10-19T21:46:15.585Z,7.45
2022-10-19T21:48:42.814Z,9.95
2022-10-19T21:51:43.412Z,6.72
2022-10-19T21:54:13.379Z,9.20
2022-10-19T21:56:40.739Z,7.20
2022-10-19T21:59:07.735Z,7.85
2022-10-19T22:01:38.571Z,7.10
2022-10-19T22:04:11.942Z,7.30
2022-10-19T22:06:39.162Z,7.45
2022-10-19T22:09:07.626Z,8.48
2022-10-19T22:11:34.432Z,8.82
2022-10-19T22:14:02.945Z,8.98
2022-10-19T22:16:31.294Z,11.40
2022-10-19T22:18:58.504Z,8.23
2022-10-19T22:21:28.232Z,7.50
2022-10-19T22:24:00.617Z,7.45
2022-10-19T22:26:32.369Z,7.35
2022-10-19T22:29:00.606Z,7.93
2022-10-19T22:31:29.484Z,7.22
2022-10-19T22:33:56.211Z,7.20
2022-10-19T22:36:23.046Z,7.05
2022-10-19T22:38:49.726Z,7.05
2022-10-19T22:41:16.483Z,6.97
2022-10-19T22:43:43.204Z,6.38
2022-10-19T22:46:09.932Z,8.88
2022-10-19T22:48:36.860Z,7.65
2022-10-19T22:51:03.637Z,7.88
2022-10-19T22:53:30.354Z,7.50
2022-10-19T22:55:57.121Z,7.10
2022-10-19T22:58:23.898Z,7.38
2022-10-19T23:01:04.883Z,6.95
2022-10-19T23:03:31.881Z,7.85
2022-10-19T23:05:58.873Z,9.65
2022-10-19T23:08:25.964Z,7.57
2022-10-19T23:10:52.740Z,7.68
2022-10-19T23:13:19.480Z,13.30
2022-10-19T23:15:46.316Z,13.80
2022-10-19T23:18:13.527Z,9.93
2022-10-19T23:20:40.259Z,8.98
2022-10-19T23:23:07.791Z,11.60
2022-10-19T23:25:34.598Z,13.43
2022-10-19T23:28:01.639Z,11.07
2022-10-19T23:30:28.370Z,12.13
2022-10-19T23:32:55.104Z,14.13
2022-10-19T23:35:21.841Z,12.20
2022-10-19T23:37:48.629Z,26.13
2022-10-19T23:40:15.378Z,13.75
2022-10-19T23:42:43.052Z,23.63
2022-10-19T23:45:10.325Z,21.33
2022-10-19T23:47:37.376Z,20.83
2022-10-19T23:50:04.573Z,11.05
2022-10-19T23:52:31.298Z,12.63
2022-10-19T23:54:58.169Z,12.15
2022-10-19T23:57:24.991Z,14.50
2022-10-19T23:59:51.583Z,11.88
